createdAt,value
2022-08-31T00:00:46.013Z,59.92
2022-08-31T00:01:46.053Z,60.02
2022-08-31T00:02:45.995Z,60.22
2022-08-31T00:03:45.963Z,60.22
2022-08-31T00:04:46.004Z,60.32
2022-08-31T00:05:45.943Z,60.42
2022-08-31T00:06:45.926Z,60.52
2022-08-31T00:07:46.955Z,60.72
2022-08-31T00:08:45.909Z,60.62
2022-08-31T00:09:45.898Z,60.82
2022-08-31T00:10:45.897Z,60.82
2022-08-31T00:11:45.880Z,60.93
2022-08-31T00:12:45.890Z,60.93
2022-08-31T00:13:45.860Z,61.02
2022-08-31T00:14:45.847Z,61.05
2022-08-31T00:15:45.848Z,61.02
2022-08-31T00:16:45.890Z,61.02
2022-08-31T00:17:45.840Z,61.02
2022-08-31T00:18:45.802Z,61.13
2022-08-31T00:19:45.801Z,61.13
2022-08-31T00:20:45.791Z,60.93
2022-08-31T00:21:45.782Z,61.02
2022-08-31T00:22:45.800Z,61.02
2022-08-31T00:23:45.756Z,61.13
2022-08-31T00:24:45.742Z,61.22
2022-08-31T00:25:45.744Z,61.33
2022-08-31T00:26:45.733Z,61.43
2022-08-31T00:27:45.715Z,61.55
2022-08-31T00:28:45.724Z,61.46
2022-08-31T00:29:45.716Z,61.55
2022-08-31T00:30:45.687Z,61.66
2022-08-31T00:31:45.695Z,61.76
2022-08-31T00:32:45.686Z,61.86
2022-08-31T00:33:45.677Z,61.86
2022-08-31T00:34:45.652Z,61.86
2022-08-31T00:35:45.636Z,61.86
2022-08-31T00:36:45.625Z,61.96
2022-08-31T00:37:45.610Z,62.06
2022-08-31T00:38:45.627Z,62.16
2022-08-31T00:39:45.589Z,62.06
2022-08-31T00:40:45.654Z,62.16
2022-08-31T00:41:45.570Z,62.16
2022-08-31T00:42:45.550Z,62.26
2022-08-31T00:43:45.578Z,62.36
2022-08-31T00:44:45.530Z,62.36
2022-08-31T00:45:45.592Z,62.46
2022-08-31T00:46:45.511Z,62.66
2022-08-31T00:47:45.510Z,62.66
2022-08-31T00:48:45.522Z,62.66
2022-08-31T00:49:45.483Z,62.76
2022-08-31T00:50:45.514Z,62.76
2022-08-31T00:51:45.473Z,62.76
2022-08-31T00:52:45.454Z,62.86
2022-08-31T00:53:45.474Z,62.96
2022-08-31T00:54:45.445Z,63.06
2022-08-31T00:55:45.425Z,63.26
2022-08-31T00:56:45.410Z,63.26
2022-08-31T00:57:45.406Z,63.46
2022-08-31T00:58:45.416Z,63.46
2022-08-31T00:59:46.384Z,63.56
2022-08-31T01:00:45.445Z,63.56
2022-08-31T01:01:45.436Z,63.67
2022-08-31T01:02:45.361Z,63.56
2022-08-31T01:03:45.368Z,63.70
2022-08-31T01:04:45.331Z,63.90
2022-08-31T01:05:45.319Z,63.90
2022-08-31T01:06:45.307Z,64.00
2022-08-31T01:07:45.300Z,64.00
2022-08-31T01:08:45.319Z,64.10
2022-08-31T01:09:45.281Z,64.10
2022-08-31T01:10:46.270Z,64.00
2022-08-31T01:11:45.262Z,64.20
2022-08-31T01:12:45.480Z,64.30
2022-08-31T01:13:45.262Z,64.20
2022-08-31T01:14:45.225Z,64.20
2022-08-31T01:15:45.225Z,64.30
2022-08-31T01:16:45.271Z,64.30
2022-08-31T01:17:45.224Z,64.50
2022-08-31T01:18:45.184Z,64.40
2022-08-31T01:19:45.174Z,64.40
2022-08-31T01:20:48.535Z,64.60
2022-08-31T01:21:45.162Z,64.70
2022-08-31T01:22:45.175Z,64.80
2022-08-31T01:23:45.135Z,64.90
2022-08-31T01:24:45.118Z,65.00
2022-08-31T01:25:45.116Z,65.10
2022-08-31T01:26:49.756Z,65.30
2022-08-31T01:27:46.117Z,65.30
2022-08-31T01:28:45.078Z,65.20
2022-08-31T01:29:45.078Z,65.20
2022-08-31T01:30:45.066Z,65.41
2022-08-31T01:31:45.152Z,65.60
2022-08-31T01:32:45.068Z,65.60
2022-08-31T01:33:45.030Z,65.80
2022-08-31T01:34:45.023Z,65.91
2022-08-31T01:35:45.019Z,66.03
2022-08-31T01:36:45.001Z,66.14
2022-08-31T01:37:45.012Z,66.03
2022-08-31T01:38:44.972Z,66.14
2022-08-31T01:39:44.982Z,66.20
2022-08-31T01:40:45.020Z,66.20
2022-08-31T01:41:44.953Z,66.20
2022-08-31T01:42:44.934Z,66.11
2022-08-31T01:43:44.958Z,66.11
2022-08-31T01:44:44.914Z,66.20
2022-08-31T01:45:44.913Z,66.31
2022-08-31T01:46:44.958Z,66.41
2022-08-31T01:47:44.894Z,66.34
2022-08-31T01:48:44.895Z,66.64
2022-08-31T01:49:44.885Z,66.64
2022-08-31T01:50:44.855Z,66.64
2022-08-31T01:51:44.845Z,66.64
2022-08-31T01:52:44.828Z,66.74
2022-08-31T01:53:45.773Z,66.84
2022-08-31T01:54:44.811Z,66.84
2022-08-31T01:55:44.808Z,66.94
2022-08-31T01:56:44.789Z,66.94
2022-08-31T01:57:44.779Z,66.94
2022-08-31T01:58:45.050Z,66.94
2022-08-31T01:59:44.771Z,67.04
2022-08-31T02:00:44.774Z,67.14
2022-08-31T02:01:44.818Z,67.14
2022-08-31T02:02:44.765Z,67.14
2022-08-31T02:03:44.751Z,67.24
2022-08-31T02:04:44.723Z,67.35
2022-08-31T02:05:44.702Z,67.44
2022-08-31T02:06:44.694Z,67.55
2022-08-31T02:07:44.691Z,67.55
2022-08-31T02:08:44.694Z,67.65
2022-08-31T02:09:44.664Z,67.85
2022-08-31T02:10:44.660Z,67.85
2022-08-31T02:11:44.644Z,68.08
2022-08-31T02:12:44.625Z,68.18
2022-08-31T02:13:44.645Z,68.28
2022-08-31T02:14:44.605Z,68.18
2022-08-31T02:15:44.601Z,68.28
2022-08-31T02:16:44.597Z,68.38
2022-08-31T02:17:44.598Z,68.59
2022-08-31T02:18:44.589Z,68.48
2022-08-31T02:19:44.566Z,68.59
2022-08-31T02:20:44.547Z,68.48
2022-08-31T02:21:44.539Z,68.48
2022-08-31T02:22:44.539Z,68.78
2022-08-31T02:23:44.550Z,68.78
2022-08-31T02:24:44.499Z,68.78
2022-08-31T02:25:44.502Z,68.88
2022-08-31T02:26:44.494Z,68.98
2022-08-31T02:27:44.478Z,69.09
2022-08-31T02:28:44.482Z,69.29
2022-08-31T02:29:44.456Z,69.29
2022-08-31T02:30:44.442Z,69.29
2022-08-31T02:31:44.473Z,69.29
2022-08-31T02:32:44.422Z,69.18
2022-08-31T02:33:44.440Z,69.29
2022-08-31T02:34:44.406Z,69.29
2022-08-31T02:35:44.405Z,69.29
2022-08-31T02:36:44.383Z,69.18
2022-08-31T02:37:44.375Z,69.49
2022-08-31T02:38:44.386Z,69.62
2022-08-31T02:39:44.359Z,69.82
2022-08-31T02:40:44.386Z,69.72
2022-08-31T02:41:44.333Z,69.72
2022-08-31T02:42:53.516Z,69.92
2022-08-31T02:43:45.336Z,70.03
2022-08-31T02:44:44.297Z,70.03
2022-08-31T02:45:44.298Z,70.12
2022-08-31T02:46:45.333Z,70.23
2022-08-31T02:47:44.278Z,70.12
2022-08-31T02:48:44.282Z,70.32
2022-08-31T02:49:44.268Z,70.23
2022-08-31T02:50:44.238Z,70.32
2022-08-31T02:51:44.257Z,70.32
2022-08-31T02:52:44.222Z,70.32
2022-08-31T02:53:44.242Z,70.32
2022-08-31T02:54:44.206Z,70.32
2022-08-31T02:55:44.191Z,70.43
2022-08-31T02:56:44.173Z,70.43
2022-08-31T02:57:44.182Z,70.32
2022-08-31T02:58:44.181Z,70.43
2022-08-31T02:59:44.153Z,70.53
2022-08-31T03:00:44.141Z,70.63
2022-08-31T03:01:44.198Z,70.63
2022-08-31T03:02:44.188Z,70.63
2022-08-31T03:03:46.493Z,70.63
2022-08-31T03:04:44.098Z,70.63
2022-08-31T03:05:44.094Z,70.63
2022-08-31T03:06:44.076Z,70.76
2022-08-31T03:07:44.072Z,70.86
2022-08-31T03:08:44.077Z,70.86
2022-08-31T03:09:44.048Z,70.86
2022-08-31T03:10:44.034Z,70.86
2022-08-31T03:11:44.027Z,70.96
2022-08-31T03:12:44.014Z,70.96
2022-08-31T03:13:44.038Z,71.16
2022-08-31T03:14:43.998Z,71.06
2022-08-31T03:15:44.068Z,71.06
2022-08-31T03:16:43.978Z,71.06
2022-08-31T03:17:43.967Z,70.96
2022-08-31T03:18:43.979Z,70.86
2022-08-31T03:19:43.948Z,70.96
2022-08-31T03:20:43.933Z,70.96
2022-08-31T03:21:43.935Z,70.96
2022-08-31T03:22:45.769Z,70.96
2022-08-31T03:23:43.934Z,70.96
2022-08-31T03:24:43.892Z,70.96
2022-08-31T03:25:43.883Z,71.16
2022-08-31T03:26:43.872Z,71.16
2022-08-31T03:27:43.872Z,71.06
2022-08-31T03:28:43.874Z,71.16
2022-08-31T03:29:43.859Z,71.26
2022-08-31T03:30:43.891Z,71.36
2022-08-31T03:31:43.828Z,71.36
2022-08-31T03:32:43.807Z,71.36
2022-08-31T03:33:43.825Z,71.47
2022-08-31T03:34:43.790Z,71.56
2022-08-31T03:35:43.787Z,71.77
2022-08-31T03:36:43.767Z,71.67
2022-08-31T03:37:43.759Z,71.67
2022-08-31T03:38:43.766Z,71.56
2022-08-31T03:39:43.748Z,71.67
2022-08-31T03:40:43.810Z,71.77
2022-08-31T03:41:43.718Z,71.67
2022-08-31T03:42:43.716Z,71.77
2022-08-31T03:43:43.729Z,71.77
2022-08-31T03:44:43.692Z,71.77
2022-08-31T03:45:43.684Z,71.80
2022-08-31T03:46:43.784Z,71.70
2022-08-31T03:47:44.877Z,72.00
2022-08-31T03:48:43.670Z,71.91
2022-08-31T03:49:43.640Z,71.91
2022-08-31T03:50:43.621Z,71.77
2022-08-31T03:51:43.622Z,71.91
2022-08-31T03:52:43.603Z,72.00
2022-08-31T03:53:43.623Z,72.00
2022-08-31T03:54:43.592Z,71.91
2022-08-31T03:55:43.583Z,72.00
2022-08-31T03:56:43.574Z,72.11
2022-08-31T03:57:43.563Z,72.11
2022-08-31T03:58:43.566Z,72.11
2022-08-31T03:59:43.536Z,72.20
2022-08-31T04:00:43.538Z,72.11
2022-08-31T04:01:43.598Z,72.31
2022-08-31T04:02:43.568Z,72.31
2022-08-31T04:03:43.558Z,72.31
2022-08-31T04:04:43.486Z,72.41
2022-08-31T04:05:43.475Z,72.20
2022-08-31T04:06:43.469Z,72.51
2022-08-31T04:07:43.449Z,72.51
2022-08-31T04:08:43.469Z,72.51
2022-08-31T04:09:43.428Z,72.61
2022-08-31T04:10:43.380Z,72.61
2022-08-31T04:11:45.264Z,72.51
2022-08-31T04:12:43.407Z,72.61
2022-08-31T04:13:43.387Z,72.61
2022-08-31T04:14:43.401Z,72.71
2022-08-31T04:15:43.416Z,72.81
2022-08-31T04:16:43.361Z,72.81
2022-08-31T04:17:43.304Z,72.81
2022-08-31T04:18:43.341Z,72.81
2022-08-31T04:19:43.309Z,72.61
2022-08-31T04:20:43.270Z,72.61
2022-08-31T04:21:43.252Z,72.61
2022-08-31T04:22:43.252Z,72.71
2022-08-31T04:23:43.234Z,72.81
2022-08-31T04:24:43.249Z,72.71
2022-08-31T04:25:43.224Z,72.91
2022-08-31T04:26:43.210Z,72.81
2022-08-31T04:27:43.196Z,72.81
2022-08-31T04:28:43.186Z,72.81
2022-08-31T04:29:43.204Z,72.71
2022-08-31T04:30:43.237Z,72.81
2022-08-31T04:31:43.147Z,72.71
2022-08-31T04:32:43.157Z,72.81
2022-08-31T04:33:43.130Z,72.61
2022-08-31T04:34:43.158Z,72.71
2022-08-31T04:35:43.108Z,72.71
2022-08-31T04:36:43.109Z,72.81
2022-08-31T04:37:46.490Z,72.71
2022-08-31T04:38:43.081Z,72.71
2022-08-31T04:39:50.669Z,72.81
2022-08-31T04:40:44.148Z,72.85
2022-08-31T04:41:43.041Z,72.94
2022-08-31T04:42:43.050Z,72.94
2022-08-31T04:43:43.031Z,72.94
2022-08-31T04:44:43.042Z,72.94
2022-08-31T04:45:44.644Z,73.05
2022-08-31T04:46:43.003Z,73.05
2022-08-31T04:47:42.990Z,72.94
2022-08-31T04:48:42.985Z,72.94
2022-08-31T04:49:42.994Z,73.05
2022-08-31T04:50:43.312Z,73.05
2022-08-31T04:51:42.953Z,73.05
2022-08-31T04:52:42.945Z,73.05
2022-08-31T04:53:42.930Z,73.25
2022-08-31T04:54:42.945Z,73.14
2022-08-31T04:55:42.909Z,73.14
2022-08-31T04:56:42.906Z,73.25
2022-08-31T04:57:42.886Z,73.25
2022-08-31T04:58:42.877Z,73.14
2022-08-31T04:59:42.886Z,73.14
2022-08-31T05:00:42.860Z,73.25
2022-08-31T05:01:43.733Z,73.25
2022-08-31T05:02:42.883Z,73.25
2022-08-31T05:03:42.830Z,73.35
2022-08-31T05:04:42.850Z,73.35
2022-08-31T05:05:42.799Z,73.25
2022-08-31T05:06:42.791Z,73.25
2022-08-31T05:07:42.789Z,73.25
2022-08-31T05:08:42.794Z,73.25
2022-08-31T05:09:42.789Z,73.25
2022-08-31T05:10:42.753Z,73.25
2022-08-31T05:11:42.744Z,73.25
2022-08-31T05:12:42.737Z,73.14
2022-08-31T05:13:42.732Z,73.14
2022-08-31T05:14:42.739Z,73.25
2022-08-31T05:15:42.747Z,73.14
2022-08-31T05:16:42.714Z,73.25
2022-08-31T05:17:42.675Z,73.35
2022-08-31T05:18:42.675Z,73.14
2022-08-31T05:19:42.685Z,73.25
2022-08-31T05:20:42.654Z,73.25
2022-08-31T05:21:42.644Z,73.35
2022-08-31T05:22:42.636Z,73.45
2022-08-31T05:23:42.615Z,73.45
2022-08-31T05:24:42.640Z,73.35
2022-08-31T05:25:42.597Z,73.45
2022-08-31T05:26:42.587Z,73.35
2022-08-31T05:27:42.581Z,73.25
2022-08-31T05:28:42.569Z,73.21
2022-08-31T05:29:42.590Z,73.11
2022-08-31T05:30:42.581Z,73.11
2022-08-31T05:31:42.539Z,73.41
2022-08-31T05:32:42.529Z,73.21
2022-08-31T05:33:42.512Z,73.11
2022-08-31T05:34:42.540Z,73.01
2022-08-31T05:35:42.491Z,73.32
2022-08-31T05:36:42.494Z,73.11
2022-08-31T05:37:42.477Z,73.11
2022-08-31T05:38:42.482Z,73.01
2022-08-31T05:39:42.480Z,73.01
2022-08-31T05:40:42.520Z,72.81
2022-08-31T05:41:42.433Z,72.91
2022-08-31T05:42:42.442Z,73.01
2022-08-31T05:43:42.413Z,72.81
2022-08-31T05:44:42.436Z,72.71
2022-08-31T05:45:42.394Z,72.91
2022-08-31T05:46:42.420Z,73.01
2022-08-31T05:47:42.380Z,72.91
2022-08-31T05:48:42.366Z,72.81
2022-08-31T05:49:43.375Z,73.01
2022-08-31T05:50:42.347Z,73.11
2022-08-31T05:51:42.326Z,72.81
2022-08-31T05:52:42.326Z,72.71
2022-08-31T05:53:42.307Z,72.81
2022-08-31T05:54:42.329Z,73.01
2022-08-31T05:55:42.288Z,73.01
2022-08-31T05:56:42.936Z,73.01
2022-08-31T05:57:42.269Z,72.91
2022-08-31T05:58:42.261Z,72.91
2022-08-31T05:59:42.272Z,72.91
2022-08-31T06:00:42.247Z,72.88
2022-08-31T06:01:42.307Z,72.77
2022-08-31T06:02:42.221Z,72.97
2022-08-31T06:03:42.211Z,72.88
2022-08-31T06:04:42.272Z,72.77
2022-08-31T06:05:42.227Z,72.88
2022-08-31T06:06:42.190Z,72.57
2022-08-31T06:07:42.173Z,72.57
2022-08-31T06:08:42.164Z,72.47
2022-08-31T06:09:42.174Z,72.47
2022-08-31T06:10:42.143Z,72.57
2022-08-31T06:11:42.155Z,72.67
2022-08-31T06:12:42.125Z,72.67
2022-08-31T06:13:42.185Z,72.27
2022-08-31T06:14:45.579Z,72.07
2022-08-31T06:15:43.107Z,71.87
2022-08-31T06:16:42.107Z,71.87
2022-08-31T06:17:42.068Z,72.07
2022-08-31T06:18:42.066Z,71.94
2022-08-31T06:19:42.075Z,71.63
2022-08-31T06:20:42.037Z,71.63
2022-08-31T06:21:49.991Z,71.53
2022-08-31T06:22:43.017Z,71.43
2022-08-31T06:23:41.999Z,71.53
2022-08-31T06:24:42.040Z,71.23
2022-08-31T06:25:41.981Z,71.33
2022-08-31T06:26:41.980Z,71.23
2022-08-31T06:27:41.961Z,71.23
2022-08-31T06:28:41.967Z,71.33
2022-08-31T06:29:41.966Z,71.43
2022-08-31T06:30:54.818Z,71.53
2022-08-31T06:31:42.968Z,71.53
2022-08-31T06:32:41.923Z,71.83
2022-08-31T06:33:41.914Z,71.83
2022-08-31T06:34:41.914Z,71.94
2022-08-31T06:35:41.881Z,71.73
2022-08-31T06:36:41.882Z,71.63
2022-08-31T06:37:41.864Z,71.73
2022-08-31T06:38:41.890Z,71.63
2022-08-31T06:39:41.930Z,71.73
2022-08-31T06:40:41.902Z,71.73
2022-08-31T06:41:41.823Z,71.63
2022-08-31T06:42:41.829Z,71.83
2022-08-31T06:43:41.816Z,71.73
2022-08-31T06:44:41.815Z,71.73
2022-08-31T06:45:41.776Z,71.63
2022-08-31T06:46:41.837Z,71.53
2022-08-31T06:47:41.767Z,71.83
2022-08-31T06:48:41.757Z,71.94
2022-08-31T06:49:41.758Z,71.73
2022-08-31T06:50:41.742Z,71.53
2022-08-31T06:51:41.711Z,71.63
2022-08-31T06:52:41.711Z,71.43
2022-08-31T06:53:41.700Z,71.63
2022-08-31T06:54:41.712Z,71.43
2022-08-31T06:55:41.673Z,71.33
2022-08-31T06:56:41.671Z,71.09
2022-08-31T06:57:41.652Z,71.00
2022-08-31T06:58:41.661Z,70.70
2022-08-31T06:59:41.654Z,70.79
2022-08-31T07:00:42.412Z,71.00
2022-08-31T07:01:41.733Z,71.00
2022-08-31T07:02:41.661Z,71.20
2022-08-31T07:03:41.595Z,71.00
2022-08-31T07:04:41.614Z,70.79
2022-08-31T07:05:41.574Z,70.59
2022-08-31T07:06:41.565Z,70.70
2022-08-31T07:07:41.550Z,70.79
2022-08-31T07:08:41.549Z,70.79
2022-08-31T07:09:41.547Z,70.50
2022-08-31T07:10:41.527Z,70.66
2022-08-31T07:11:44.555Z,70.26
2022-08-31T07:12:41.508Z,70.06
2022-08-31T07:13:41.489Z,70.26
2022-08-31T07:14:41.509Z,70.16
2022-08-31T07:15:42.468Z,70.26
2022-08-31T07:16:41.539Z,70.16
2022-08-31T07:17:41.450Z,70.06
2022-08-31T07:18:41.441Z,69.92
2022-08-31T07:19:45.017Z,69.72
2022-08-31T07:20:41.431Z,69.52
2022-08-31T07:21:41.410Z,69.32
2022-08-31T07:22:41.403Z,69.42
2022-08-31T07:23:41.383Z,69.32
2022-08-31T07:24:41.403Z,69.32
2022-08-31T07:25:41.366Z,69.39
2022-08-31T07:26:41.362Z,68.99
2022-08-31T07:27:41.343Z,68.68
2022-08-31T07:28:41.352Z,68.68
2022-08-31T07:29:41.345Z,68.88
2022-08-31T07:30:41.369Z,68.65
2022-08-31T07:31:41.307Z,68.29
2022-08-31T07:32:41.297Z,68.25
2022-08-31T07:33:41.286Z,68.25
2022-08-31T07:34:41.305Z,68.35
2022-08-31T07:35:41.268Z,68.05
2022-08-31T07:36:41.267Z,68.05
2022-08-31T07:37:41.247Z,67.82
2022-08-31T07:38:41.238Z,68.02
2022-08-31T07:39:41.248Z,68.02
2022-08-31T07:40:41.836Z,67.72
2022-08-31T07:41:41.198Z,67.42
2022-08-31T07:42:41.207Z,66.61
2022-08-31T07:43:41.179Z,66.61
2022-08-31T07:44:41.239Z,66.28
2022-08-31T07:45:41.200Z,66.28
2022-08-31T07:46:41.151Z,66.08
2022-08-31T07:47:41.142Z,66.05
2022-08-31T07:48:41.142Z,66.05
2022-08-31T07:49:41.242Z,65.75
2022-08-31T07:50:41.113Z,65.95
2022-08-31T07:51:43.462Z,66.15
2022-08-31T07:52:41.092Z,65.95
2022-08-31T07:53:41.089Z,65.85
2022-08-31T07:54:41.101Z,66.02
2022-08-31T07:55:41.063Z,65.62
2022-08-31T07:56:41.056Z,65.31
2022-08-31T07:57:41.036Z,65.09
2022-08-31T07:58:41.036Z,64.48
2022-08-31T07:59:41.046Z,64.42
2022-08-31T08:00:41.028Z,64.31
2022-08-31T08:01:41.068Z,64.42
2022-08-31T08:02:41.040Z,63.89
2022-08-31T08:03:40.977Z,64.09
2022-08-31T08:04:41.000Z,64.39
2022-08-31T08:05:40.980Z,64.28
2022-08-31T08:06:40.949Z,63.39
2022-08-31T08:07:40.939Z,63.25
2022-08-31T08:08:40.941Z,63.15
2022-08-31T08:09:40.960Z,62.92
2022-08-31T08:10:40.911Z,62.62
2022-08-31T08:11:40.901Z,62.72
2022-08-31T08:12:40.892Z,62.32
2022-08-31T08:13:40.872Z,62.02
2022-08-31T08:14:40.901Z,61.92
2022-08-31T08:15:40.882Z,61.72
2022-08-31T08:16:40.903Z,62.32
2022-08-31T08:17:40.833Z,62.82
2022-08-31T08:18:41.649Z,62.62
2022-08-31T08:19:40.836Z,62.42
2022-08-31T08:20:40.805Z,62.02
2022-08-31T08:21:40.795Z,61.52
2022-08-31T08:22:56.015Z,61.69
2022-08-31T08:23:41.776Z,61.79
2022-08-31T08:24:40.823Z,61.69
2022-08-31T08:25:40.758Z,61.66
2022-08-31T08:26:40.738Z,61.19
2022-08-31T08:27:40.744Z,61.49
2022-08-31T08:28:41.303Z,61.49
2022-08-31T08:29:40.749Z,61.29
2022-08-31T08:30:40.710Z,61.49
2022-08-31T08:31:40.791Z,61.69
2022-08-31T08:32:40.680Z,61.79
2022-08-31T08:33:40.686Z,61.09
2022-08-31T08:34:40.661Z,61.59
2022-08-31T08:35:40.675Z,62.19
2022-08-31T08:36:40.651Z,61.49
2022-08-31T08:37:57.140Z,61.07
2022-08-31T08:38:41.623Z,60.77
2022-08-31T08:39:40.613Z,60.77
2022-08-31T08:40:40.641Z,60.96
2022-08-31T08:41:40.614Z,60.57
2022-08-31T08:42:40.586Z,60.46
2022-08-31T08:43:40.575Z,61.57
2022-08-31T08:44:40.570Z,61.57
2022-08-31T08:45:40.607Z,61.46
2022-08-31T08:46:40.664Z,61.19
2022-08-31T08:47:40.574Z,61.40
2022-08-31T08:48:40.518Z,61.19
2022-08-31T08:49:40.519Z,61.19
2022-08-31T08:50:40.517Z,61.19
2022-08-31T08:51:40.492Z,61.46
2022-08-31T08:52:40.479Z,60.66
2022-08-31T08:53:40.470Z,60.27
2022-08-31T08:54:40.458Z,60.49
2022-08-31T08:55:40.473Z,60.59
2022-08-31T08:56:40.442Z,60.99
2022-08-31T08:57:40.431Z,60.69
2022-08-31T08:58:40.422Z,60.79
2022-08-31T08:59:40.412Z,60.69
2022-08-31T09:00:40.423Z,60.89
2022-08-31T09:01:40.459Z,60.99
2022-08-31T09:02:40.465Z,60.99
2022-08-31T09:03:40.371Z,61.19
2022-08-31T09:04:40.354Z,61.99
2022-08-31T09:05:40.373Z,61.79
2022-08-31T09:06:45.570Z,61.69
2022-08-31T09:07:41.345Z,61.19
2022-08-31T09:08:40.312Z,60.99
2022-08-31T09:09:40.328Z,61.29
2022-08-31T09:10:40.316Z,61.09
2022-08-31T09:11:40.288Z,60.89
2022-08-31T09:12:40.281Z,60.99
2022-08-31T09:13:40.267Z,60.77
2022-08-31T09:14:40.251Z,60.66
2022-08-31T09:15:40.286Z,60.46
2022-08-31T09:16:40.229Z,60.86
2022-08-31T09:17:40.231Z,60.59
2022-08-31T09:18:40.220Z,60.79
2022-08-31T09:19:40.201Z,60.29
2022-08-31T09:20:40.211Z,60.79
2022-08-31T09:21:40.190Z,61.29
2022-08-31T09:22:40.175Z,60.72
2022-08-31T09:23:40.183Z,61.42
2022-08-31T09:24:40.152Z,60.99
2022-08-31T09:25:40.162Z,61.49
2022-08-31T09:26:40.141Z,61.22
2022-08-31T09:27:40.142Z,61.12
2022-08-31T09:28:40.111Z,61.02
2022-08-31T09:29:40.104Z,60.72
2022-08-31T09:30:40.114Z,60.69
2022-08-31T09:31:40.190Z,60.59
2022-08-31T09:32:40.082Z,60.79
2022-08-31T09:33:40.068Z,60.89
2022-08-31T09:34:40.051Z,60.69
2022-08-31T09:35:40.084Z,60.27
2022-08-31T09:36:40.068Z,60.16
2022-08-31T09:37:40.034Z,60.27
2022-08-31T09:38:40.008Z,59.64
2022-08-31T09:39:40.007Z,59.44
2022-08-31T09:40:40.452Z,58.71
2022-08-31T09:41:39.980Z,58.61
2022-08-31T09:42:39.967Z,58.58
2022-08-31T09:43:41.135Z,57.68
2022-08-31T09:44:39.991Z,56.96
2022-08-31T09:45:42.351Z,56.85
2022-08-31T09:46:39.932Z,56.76
2022-08-31T09:47:39.924Z,57.06
2022-08-31T09:48:39.912Z,56.85
2022-08-31T09:49:39.904Z,56.85
2022-08-31T09:50:39.925Z,56.16
2022-08-31T09:51:39.886Z,56.56
2022-08-31T09:52:39.882Z,56.23
2022-08-31T09:53:39.880Z,55.93
2022-08-31T09:54:46.024Z,55.63
2022-08-31T09:55:40.930Z,55.73
2022-08-31T09:56:39.828Z,56.13
2022-08-31T09:57:39.844Z,56.10
2022-08-31T09:58:39.837Z,55.78
2022-08-31T09:59:39.799Z,54.68
2022-08-31T10:00:39.816Z,54.86
2022-08-31T10:01:39.870Z,54.06
2022-08-31T10:02:39.837Z,54.06
2022-08-31T10:03:39.759Z,53.53
2022-08-31T10:04:39.798Z,52.94
2022-08-31T10:05:39.770Z,52.64
2022-08-31T10:06:39.743Z,52.97
2022-08-31T10:07:39.767Z,53.86
2022-08-31T10:08:39.813Z,54.19
2022-08-31T10:09:39.703Z,53.66
2022-08-31T10:10:39.713Z,53.44
2022-08-31T10:11:39.682Z,52.74
2022-08-31T10:12:39.664Z,52.72
2022-08-31T10:13:39.664Z,51.95
2022-08-31T10:14:39.643Z,53.06
2022-08-31T10:15:39.751Z,53.36
2022-08-31T10:16:39.626Z,53.78
2022-08-31T10:17:39.625Z,54.49
2022-08-31T10:18:39.669Z,54.31
2022-08-31T10:19:39.604Z,54.91
2022-08-31T10:20:39.607Z,54.11
2022-08-31T10:21:39.577Z,54.64
2022-08-31T10:22:39.567Z,54.91
2022-08-31T10:23:39.558Z,55.41
2022-08-31T10:24:39.548Z,55.61
2022-08-31T10:25:39.567Z,55.13
2022-08-31T10:26:39.529Z,54.74
2022-08-31T10:27:39.520Z,53.94
2022-08-31T10:28:39.513Z,53.71
2022-08-31T10:29:39.522Z,53.61
2022-08-31T10:30:39.596Z,53.59
2022-08-31T10:31:39.490Z,52.79
2022-08-31T10:32:39.464Z,52.72
2022-08-31T10:33:39.454Z,52.72
2022-08-31T10:34:39.475Z,53.44
2022-08-31T10:35:39.436Z,53.84
2022-08-31T10:36:39.433Z,53.84
2022-08-31T10:37:39.415Z,53.54
2022-08-31T10:38:39.405Z,53.64
2022-08-31T10:39:39.396Z,53.02
2022-08-31T10:40:39.489Z,53.04
2022-08-31T10:41:39.380Z,53.04
2022-08-31T10:42:39.368Z,53.14
2022-08-31T10:43:39.357Z,52.97
2022-08-31T10:44:39.346Z,52.87
2022-08-31T10:45:39.361Z,53.17
2022-08-31T10:46:39.379Z,53.06
2022-08-31T10:47:39.317Z,53.17
2022-08-31T10:48:39.302Z,53.17
2022-08-31T10:49:39.302Z,53.27
2022-08-31T10:50:39.377Z,53.77
2022-08-31T10:51:39.280Z,53.06
2022-08-31T10:52:39.261Z,52.74
2022-08-31T10:53:40.269Z,52.55
2022-08-31T10:54:39.242Z,52.87
2022-08-31T10:55:39.264Z,53.14
2022-08-31T10:56:39.223Z,52.64
2022-08-31T10:57:39.216Z,51.75
2022-08-31T10:58:39.214Z,52.04
2022-08-31T10:59:39.196Z,51.92
2022-08-31T11:00:39.247Z,51.29
2022-08-31T11:01:39.260Z,50.43
2022-08-31T11:02:39.170Z,50.82
2022-08-31T11:03:39.155Z,50.20
2022-08-31T11:04:39.175Z,48.89
2022-08-31T11:05:39.170Z,48.61
2022-08-31T11:06:39.117Z,48.64
2022-08-31T11:07:39.128Z,48.32
2022-08-31T11:08:39.109Z,47.80
2022-08-31T11:09:39.099Z,47.82
2022-08-31T11:10:39.154Z,48.32
2022-08-31T11:11:43.651Z,48.34
2022-08-31T11:12:40.070Z,48.86
2022-08-31T11:13:39.051Z,49.06
2022-08-31T11:14:39.042Z,49.18
2022-08-31T11:15:39.087Z,49.46
2022-08-31T11:16:39.022Z,49.16
2022-08-31T11:17:39.032Z,48.64
2022-08-31T11:18:39.001Z,48.41
2022-08-31T11:19:38.994Z,48.83
2022-08-31T11:20:39.076Z,47.94
2022-08-31T11:21:38.976Z,48.26
2022-08-31T11:22:38.957Z,49.26
2022-08-31T11:23:42.394Z,49.08
2022-08-31T11:24:39.936Z,49.36
2022-08-31T11:25:38.958Z,49.16
2022-08-31T11:26:38.927Z,48.76
2022-08-31T11:27:38.917Z,48.96
2022-08-31T11:28:38.898Z,48.76
2022-08-31T11:29:38.899Z,48.76
2022-08-31T11:30:42.048Z,48.56
2022-08-31T11:31:38.958Z,48.98
2022-08-31T11:32:38.868Z,49.38
2022-08-31T11:33:47.364Z,49.46
2022-08-31T11:34:39.851Z,48.28
2022-08-31T11:35:39.192Z,48.16
2022-08-31T11:36:38.822Z,48.76
2022-08-31T11:37:38.812Z,48.79
2022-08-31T11:38:38.804Z,48.79
2022-08-31T11:39:38.795Z,49.48
2022-08-31T11:40:38.914Z,50.38
2022-08-31T11:41:38.796Z,49.98
2022-08-31T11:42:38.755Z,49.68
2022-08-31T11:43:38.763Z,50.18
2022-08-31T11:44:38.742Z,50.48
2022-08-31T11:45:38.851Z,49.68
2022-08-31T11:46:38.750Z,48.91
2022-08-31T11:47:38.716Z,48.91
2022-08-31T11:48:38.696Z,48.80
2022-08-31T11:49:38.689Z,48.80
2022-08-31T11:50:38.707Z,48.41
2022-08-31T11:51:41.263Z,48.38
2022-08-31T11:52:38.664Z,47.92
2022-08-31T11:53:38.657Z,46.11
2022-08-31T11:54:38.655Z,45.39
2022-08-31T11:55:38.673Z,45.49
2022-08-31T11:56:38.621Z,45.67
2022-08-31T11:57:38.619Z,45.49
2022-08-31T11:58:38.605Z,44.92
2022-08-31T11:59:38.594Z,45.23
2022-08-31T12:00:38.603Z,45.33
2022-08-31T12:01:38.572Z,45.45
2022-08-31T12:02:38.616Z,45.87
2022-08-31T12:03:38.572Z,46.77
2022-08-31T12:04:38.537Z,47.56
2022-08-31T12:05:38.624Z,47.07
2022-08-31T12:06:38.516Z,45.87
2022-08-31T12:07:38.515Z,45.15
2022-08-31T12:08:38.498Z,44.92
2022-08-31T12:09:38.493Z,44.10
2022-08-31T12:10:38.505Z,43.06
2022-08-31T12:11:38.474Z,42.77
2022-08-31T12:12:38.460Z,42.96
2022-08-31T12:13:38.461Z,43.36
2022-08-31T12:14:38.439Z,43.06
2022-08-31T12:15:38.524Z,42.35
2022-08-31T12:16:38.422Z,42.01
2022-08-31T12:17:38.434Z,41.99
2022-08-31T12:18:38.400Z,40.98
2022-08-31T12:19:38.399Z,39.56
2022-08-31T12:20:38.414Z,38.92
2022-08-31T12:21:38.375Z,38.29
2022-08-31T12:22:38.363Z,38.41
2022-08-31T12:23:38.353Z,38.81
2022-08-31T12:24:38.342Z,38.21
2022-08-31T12:25:38.371Z,38.43
2022-08-31T12:26:43.011Z,39.04
2022-08-31T12:27:39.318Z,38.88
2022-08-31T12:28:38.305Z,39.71
2022-08-31T12:29:38.307Z,39.83
2022-08-31T12:30:38.305Z,40.56
2022-08-31T12:31:38.318Z,41.26
2022-08-31T12:32:38.257Z,41.38
2022-08-31T12:33:38.281Z,41.39
2022-08-31T12:34:38.240Z,41.50
2022-08-31T12:35:38.269Z,42.01
2022-08-31T12:36:38.228Z,42.41
2022-08-31T12:37:38.218Z,43.01
2022-08-31T12:38:38.209Z,43.52
2022-08-31T12:39:38.192Z,43.23
2022-08-31T12:40:38.248Z,43.52
2022-08-31T12:41:38.172Z,44.14
2022-08-31T12:42:38.162Z,44.04
2022-08-31T12:43:38.149Z,44.04
2022-08-31T12:44:38.152Z,44.36
2022-08-31T12:45:38.158Z,44.26
2022-08-31T12:46:38.184Z,44.26
2022-08-31T12:47:38.120Z,45.06
2022-08-31T12:48:38.116Z,44.96
2022-08-31T12:49:38.105Z,44.58
2022-08-31T12:50:38.106Z,45.37
2022-08-31T12:51:38.078Z,46.67
2022-08-31T12:52:38.067Z,46.27